createdAt,value
2022-09-14T00:02:44.261Z,84.45
2022-09-14T00:06:16.510Z,84.47
2022-09-14T00:09:55.767Z,84.79
2022-09-14T00:13:35.997Z,85.16
2022-09-14T00:17:17.352Z,85.24
2022-09-14T00:20:50.821Z,85.30
2022-09-14T00:24:32.109Z,85.70
2022-09-14T00:28:06.205Z,85.88
2022-09-14T00:31:44.545Z,85.88
2022-09-14T00:35:27.307Z,85.83
2022-09-14T00:39:00.966Z,86.04
2022-09-14T00:42:39.761Z,86.06
2022-09-14T00:46:22.619Z,86.03
2022-09-14T00:50:00.804Z,86.02
2022-09-14T00:53:31.719Z,86.18
2022-09-14T00:57:12.845Z,86.19
2022-09-14T01:00:53.557Z,86.02
2022-09-14T01:04:37.700Z,86.13
2022-09-14T01:08:13.916Z,85.94
2022-09-14T01:11:55.292Z,85.84
2022-09-14T01:16:06.776Z,85.65
2022-09-14T01:19:21.329Z,85.61
2022-09-14T01:23:11.792Z,85.37
2022-09-14T01:26:59.034Z,85.33
2022-09-14T01:30:43.647Z,85.57
2022-09-14T01:34:41.110Z,85.39
2022-09-14T01:38:38.202Z,85.34
2022-09-14T01:42:21.159Z,85.25
2022-09-14T01:46:16.380Z,85.10
2022-09-14T01:50:02.839Z,84.95
2022-09-14T01:54:01.979Z,85.02
2022-09-14T01:57:45.889Z,84.95
2022-09-14T02:01:31.156Z,84.70
2022-09-14T02:05:51.760Z,84.78
2022-09-14T02:09:31.513Z,84.73
2022-09-14T02:13:14.524Z,84.58
2022-09-14T02:16:46.895Z,84.35
2022-09-14T02:20:35.542Z,84.56
2022-09-14T02:24:14.465Z,84.42
2022-09-14T02:27:52.849Z,84.46
2022-09-14T02:31:33.541Z,84.51
2022-09-14T02:35:52.511Z,84.50
2022-09-14T02:39:43.318Z,84.36
2022-09-14T02:43:47.971Z,84.36
2022-09-14T02:47:44.949Z,84.42
2022-09-14T02:51:42.555Z,84.45
2022-09-14T02:55:24.774Z,84.43
2022-09-14T02:59:04.203Z,84.34
2022-09-14T03:02:43.460Z,84.50
2022-09-14T03:06:21.811Z,84.53
2022-09-14T03:09:59.470Z,84.56
2022-09-14T03:13:38.468Z,84.48
2022-09-14T03:17:18.693Z,84.43
2022-09-14T03:21:11.206Z,84.52
2022-09-14T03:24:51.112Z,84.60
2022-09-14T03:28:31.566Z,84.71
2022-09-14T03:32:08.988Z,84.65
2022-09-14T03:35:46.641Z,84.84
2022-09-14T03:39:25.469Z,84.85
2022-09-14T03:43:03.020Z,84.93
2022-09-14T03:46:44.369Z,84.92
2022-09-14T03:50:22.864Z,84.76
2022-09-14T03:54:01.325Z,85.05
2022-09-14T03:57:39.554Z,85.13
2022-09-14T04:01:20.088Z,85.15
2022-09-14T04:04:59.308Z,85.08
2022-09-14T04:08:39.785Z,85.07
2022-09-14T04:12:17.827Z,85.00
2022-09-14T04:15:58.163Z,84.64
2022-09-14T04:19:36.385Z,84.55
2022-09-14T04:23:13.761Z,84.35
2022-09-14T04:26:50.945Z,84.49
2022-09-14T04:30:28.670Z,84.93
2022-09-14T04:34:07.056Z,85.03
2022-09-14T04:37:45.125Z,85.33
2022-09-14T04:41:23.702Z,85.38
2022-09-14T04:45:02.816Z,85.24
2022-09-14T04:48:43.087Z,85.09
2022-09-14T04:52:21.601Z,84.86
2022-09-14T04:56:04.388Z,84.65
2022-09-14T04:59:42.672Z,84.56
2022-09-14T05:03:20.156Z,84.60
2022-09-14T05:06:58.029Z,84.53
2022-09-14T05:10:35.786Z,84.82
2022-09-14T05:14:14.382Z,84.87
2022-09-14T05:17:52.726Z,84.84
2022-09-14T05:21:33.113Z,84.87
2022-09-14T05:25:11.371Z,84.93
2022-09-14T05:28:54.687Z,85.22
2022-09-14T05:32:33.388Z,85.32
2022-09-14T05:36:11.413Z,85.15
2022-09-14T05:39:51.263Z,85.11
2022-09-14T05:43:30.267Z,84.95
2022-09-14T05:47:08.042Z,84.76
2022-09-14T05:50:46.633Z,84.60
2022-09-14T05:54:25.169Z,84.40
2022-09-14T05:58:03.714Z,84.21
2022-09-14T06:01:42.987Z,84.07
2022-09-14T06:05:23.498Z,83.89
2022-09-14T06:09:01.506Z,83.75
2022-09-14T06:12:39.742Z,83.69
2022-09-14T06:16:21.144Z,83.60
2022-09-14T06:20:04.456Z,83.43
2022-09-14T06:23:45.086Z,83.30
2022-09-14T06:27:23.984Z,83.30
2022-09-14T06:31:02.959Z,83.18
2022-09-14T06:34:40.857Z,83.05
2022-09-14T06:38:18.902Z,82.99
2022-09-14T06:41:56.544Z,82.78
2022-09-14T06:45:34.635Z,82.72
2022-09-14T06:49:15.732Z,82.38
2022-09-14T06:52:53.671Z,82.06
2022-09-14T06:56:42.207Z,81.85
2022-09-14T07:00:15.579Z,81.77
2022-09-14T07:03:54.409Z,81.74
2022-09-14T07:07:32.917Z,81.90
2022-09-14T07:11:15.529Z,81.98
2022-09-14T07:14:48.673Z,81.88
2022-09-14T07:18:27.598Z,81.62
2022-09-14T07:22:22.537Z,81.46
2022-09-14T07:26:01.082Z,80.93
2022-09-14T07:29:31.840Z,79.87
2022-09-14T07:33:06.028Z,79.25
2022-09-14T07:36:39.911Z,78.50
2022-09-14T07:40:21.749Z,77.52
2022-09-14T07:44:08.306Z,76.15
2022-09-14T07:47:40.251Z,75.90
2022-09-14T07:51:18.520Z,75.66
2022-09-14T07:54:56.858Z,75.26
2022-09-14T07:58:35.863Z,74.93
2022-09-14T08:02:14.050Z,74.92
2022-09-14T08:05:59.074Z,74.27
2022-09-14T08:09:39.193Z,74.07
2022-09-14T08:13:16.756Z,73.86
2022-09-14T08:16:55.481Z,73.29
2022-09-14T08:20:34.215Z,72.92
2022-09-14T08:24:17.719Z,72.71
2022-09-14T08:27:55.598Z,72.52
2022-09-14T08:31:37.594Z,72.28
2022-09-14T08:35:15.730Z,71.67
2022-09-14T08:38:55.941Z,71.23
2022-09-14T08:42:34.202Z,70.76
2022-09-14T08:46:36.754Z,70.15
2022-09-14T08:50:18.719Z,68.48
2022-09-14T08:53:58.723Z,67.66
2022-09-14T08:57:47.860Z,67.04
2022-09-14T09:01:34.014Z,66.03
2022-09-14T09:05:37.368Z,65.82
2022-09-14T09:09:18.320Z,65.50
2022-09-14T09:12:59.625Z,64.22
2022-09-14T09:16:38.702Z,63.50
2022-09-14T09:20:30.330Z,63.20
2022-09-14T09:24:17.886Z,62.51
2022-09-14T09:28:10.194Z,62.62
2022-09-14T09:31:53.687Z,62.08
2022-09-14T09:35:32.908Z,60.94
2022-09-14T09:39:10.398Z,60.66
2022-09-14T09:43:09.524Z,60.07
2022-09-14T09:47:00.005Z,59.31
2022-09-14T09:50:49.414Z,59.06
2022-09-14T09:54:31.167Z,57.62
2022-09-14T09:58:47.934Z,57.94
2022-09-14T10:02:26.455Z,57.18
2022-09-14T10:06:11.319Z,57.40
2022-09-14T10:10:03.094Z,56.77
2022-09-14T10:13:41.593Z,56.23
2022-09-14T10:17:23.406Z,56.26
2022-09-14T10:21:03.923Z,56.38
2022-09-14T10:25:01.985Z,56.50
2022-09-14T10:28:43.561Z,57.13
2022-09-14T10:32:25.010Z,58.36
2022-09-14T10:36:05.613Z,59.88
2022-09-14T10:40:08.437Z,60.99
2022-09-14T10:44:07.963Z,61.62
2022-09-14T10:48:00.949Z,64.88
2022-09-14T10:52:07.115Z,67.27
2022-09-14T10:55:59.917Z,68.34
2022-09-14T10:59:38.626Z,68.70
2022-09-14T11:03:27.717Z,69.28
2022-09-14T11:07:21.938Z,63.72
2022-09-14T11:11:20.683Z,60.61
2022-09-14T11:15:06.391Z,58.91
2022-09-14T11:19:03.053Z,59.16
2022-09-14T11:22:55.637Z,55.92
2022-09-14T11:26:42.068Z,54.71
2022-09-14T11:30:28.547Z,52.41
2022-09-14T11:34:28.305Z,51.96
2022-09-14T11:38:15.149Z,51.06
2022-09-14T11:41:59.472Z,49.91
2022-09-14T11:45:53.028Z,48.61
2022-09-14T11:49:59.082Z,48.75
2022-09-14T11:53:40.097Z,48.00
2022-09-14T11:57:37.695Z,47.59
2022-09-14T12:01:30.712Z,46.92
2022-09-14T12:05:09.717Z,46.68
2022-09-14T12:08:47.604Z,46.27
2022-09-14T12:12:30.877Z,46.34
2022-09-14T12:16:10.396Z,46.23
2022-09-14T12:19:50.862Z,45.88
2022-09-14T12:23:49.989Z,45.62
2022-09-14T12:27:31.694Z,45.78
2022-09-14T12:31:13.736Z,46.71
2022-09-14T12:35:30.236Z,47.36
2022-09-14T12:39:28.007Z,47.57
2022-09-14T12:43:34.161Z,48.45
2022-09-14T12:47:27.393Z,48.74
2022-09-14T12:51:05.883Z,48.14
2022-09-14T12:55:21.010Z,48.98
2022-09-14T12:58:46.130Z,48.90
2022-09-14T13:02:44.942Z,48.07
2022-09-14T13:06:24.603Z,48.94
2022-09-14T13:10:06.388Z,49.95
2022-09-14T13:13:45.105Z,50.19
2022-09-14T13:17:22.745Z,49.84
2022-09-14T13:21:04.497Z,49.69
2022-09-14T13:24:47.798Z,48.87
2022-09-14T13:28:30.090Z,48.49
2022-09-14T13:32:18.784Z,47.24
2022-09-14T13:36:02.276Z,47.29
2022-09-14T13:39:41.859Z,47.40
2022-09-14T13:43:21.380Z,47.34
2022-09-14T13:47:02.920Z,47.06
2022-09-14T13:50:45.564Z,48.13
2022-09-14T13:54:30.414Z,49.07
2022-09-14T13:58:11.874Z,49.30
2022-09-14T14:01:59.831Z,49.65
2022-09-14T14:05:42.445Z,50.60
2022-09-14T14:09:20.033Z,50.84
2022-09-14T14:12:57.994Z,50.32
2022-09-14T14:16:36.987Z,49.87
2022-09-14T14:20:29.125Z,50.05
2022-09-14T14:24:28.728Z,50.48
2022-09-14T14:28:17.244Z,49.89
2022-09-14T14:31:57.854Z,49.28
2022-09-14T14:35:35.685Z,48.85
2022-09-14T14:39:13.004Z,46.94
2022-09-14T14:42:51.930Z,46.11
2022-09-14T14:46:31.275Z,46.16
2022-09-14T14:50:17.151Z,45.14
2022-09-14T14:53:54.496Z,45.03
2022-09-14T14:57:32.469Z,44.30
2022-09-14T15:01:10.588Z,44.68
2022-09-14T15:04:49.085Z,44.19
2022-09-14T15:08:26.284Z,43.69
2022-09-14T15:12:03.784Z,43.37
2022-09-14T15:15:42.616Z,43.45
2022-09-14T15:19:20.238Z,43.68
2022-09-14T15:22:57.193Z,43.44
2022-09-14T15:26:35.744Z,43.70
2022-09-14T15:30:15.245Z,43.65
2022-09-14T15:33:53.092Z,43.50
2022-09-14T15:37:31.961Z,43.01
2022-09-14T15:41:12.170Z,42.70
2022-09-14T15:44:51.965Z,42.03
2022-09-14T15:48:29.758Z,42.10
2022-09-14T15:52:07.707Z,43.35
2022-09-14T15:55:46.783Z,44.20
2022-09-14T15:59:24.495Z,44.78
2022-09-14T16:03:02.842Z,45.27
2022-09-14T16:06:41.473Z,46.59
2022-09-14T16:10:23.578Z,53.23
2022-09-14T16:13:57.587Z,55.40
2022-09-14T16:17:35.652Z,58.17
2022-09-14T16:21:17.204Z,58.55
2022-09-14T16:24:55.394Z,59.68
2022-09-14T16:28:33.137Z,60.27
2022-09-14T16:32:10.235Z,61.42
2022-09-14T16:35:49.016Z,62.07
2022-09-14T16:39:28.102Z,62.41
2022-09-14T16:43:05.734Z,62.49
2022-09-14T16:46:44.169Z,62.61
2022-09-14T16:50:21.538Z,62.51
2022-09-14T16:54:00.200Z,62.21
2022-09-14T16:57:38.537Z,62.08
2022-09-14T17:01:26.045Z,62.23
2022-09-14T17:05:04.118Z,62.33
2022-09-14T17:08:43.917Z,62.48
2022-09-14T17:12:24.228Z,62.69
2022-09-14T17:16:04.887Z,62.77
2022-09-14T17:19:44.495Z,62.91
2022-09-14T17:23:23.271Z,62.71
2022-09-14T17:27:01.543Z,63.18
2022-09-14T17:30:39.259Z,63.73
2022-09-14T17:34:17.121Z,64.25
2022-09-14T17:37:55.444Z,64.71
2022-09-14T17:41:33.314Z,65.16
2022-09-14T17:45:11.203Z,65.53
2022-09-14T17:48:50.995Z,65.64
2022-09-14T17:52:30.529Z,65.73
2022-09-14T17:56:10.828Z,66.02
2022-09-14T17:59:49.597Z,66.26
2022-09-14T18:03:27.171Z,66.47
2022-09-14T18:07:05.890Z,66.72
2022-09-14T18:10:43.960Z,66.79
2022-09-14T18:14:21.597Z,67.29
2022-09-14T18:17:59.345Z,67.50
2022-09-14T18:21:38.906Z,67.78
2022-09-14T18:25:16.506Z,67.67
2022-09-14T18:28:55.070Z,67.69
2022-09-14T18:32:33.972Z,68.01
2022-09-14T18:36:11.363Z,68.23
2022-09-14T18:39:50.252Z,68.59
2022-09-14T18:43:27.374Z,68.65
2022-09-14T18:47:05.408Z,68.95
2022-09-14T18:50:43.334Z,69.14
2022-09-14T18:54:26.744Z,69.16
2022-09-14T18:58:06.658Z,69.34
2022-09-14T19:01:44.321Z,69.51
2022-09-14T19:05:24.202Z,70.05
2022-09-14T19:09:02.137Z,70.07
2022-09-14T19:12:41.577Z,70.01
2022-09-14T19:16:20.958Z,70.31
2022-09-14T19:20:00.069Z,70.56
2022-09-14T19:23:39.612Z,70.50
2022-09-14T19:27:17.722Z,70.44
2022-09-14T19:30:54.875Z,70.45
2022-09-14T19:34:33.654Z,70.64
2022-09-14T19:38:11.337Z,70.82
2022-09-14T19:41:48.884Z,70.88
2022-09-14T19:45:26.636Z,70.79
2022-09-14T19:49:16.370Z,70.53
2022-09-14T19:52:55.471Z,70.43
2022-09-14T19:56:34.469Z,70.36
2022-09-14T20:00:17.573Z,70.60
2022-09-14T20:03:56.117Z,70.60
2022-09-14T20:07:34.680Z,70.60
2022-09-14T20:11:19.087Z,70.62
2022-09-14T20:14:58.681Z,70.59
2022-09-14T20:18:36.262Z,70.64
2022-09-14T20:22:16.735Z,70.73
2022-09-14T20:25:54.852Z,70.80
2022-09-14T20:29:34.344Z,70.89
2022-09-14T20:33:12.200Z,70.94
2022-09-14T20:36:52.142Z,71.02
2022-09-14T20:40:30.300Z,70.98
2022-09-14T20:44:08.719Z,71.15
2022-09-14T20:47:45.803Z,71.12
2022-09-14T20:51:25.273Z,71.21
2022-09-14T20:55:02.808Z,71.27
2022-09-14T20:58:41.466Z,71.30
2022-09-14T21:02:19.582Z,71.45
2022-09-14T21:06:00.585Z,71.53
2022-09-14T21:09:39.898Z,71.61
2022-09-14T21:13:17.025Z,71.74
2022-09-14T21:16:55.636Z,71.90
2022-09-14T21:20:37.337Z,71.95
2022-09-14T21:24:16.530Z,71.83
2022-09-14T21:27:54.955Z,71.55
2022-09-14T21:31:34.489Z,71.17
2022-09-14T21:35:11.818Z,70.94
2022-09-14T21:38:53.678Z,70.81
2022-09-14T21:42:32.257Z,70.76
2022-09-14T21:46:10.488Z,70.74
2022-09-14T21:49:48.284Z,70.74
2022-09-14T21:53:25.628Z,70.72
2022-09-14T21:57:03.339Z,70.66
2022-09-14T22:00:41.306Z,70.53
2022-09-14T22:04:22.222Z,70.44
2022-09-14T22:07:59.764Z,70.38
2022-09-14T22:11:38.318Z,70.30
2022-09-14T22:15:15.987Z,70.27
2022-09-14T22:18:56.194Z,70.23
2022-09-14T22:22:33.461Z,70.20
2022-09-14T22:26:12.129Z,70.23
2022-09-14T22:29:51.399Z,70.25
2022-09-14T22:33:30.273Z,70.34
2022-09-14T22:37:08.461Z,70.38
2022-09-14T22:40:46.544Z,70.49
2022-09-14T22:44:23.562Z,70.54
2022-09-14T22:48:02.699Z,70.58
2022-09-14T22:51:40.212Z,70.56
2022-09-14T22:55:18.256Z,70.53
2022-09-14T22:58:57.233Z,70.43
2022-09-14T23:02:35.984Z,70.29
2022-09-14T23:06:15.065Z,70.20
2022-09-14T23:09:53.589Z,70.08
2022-09-14T23:13:31.429Z,69.97
2022-09-14T23:17:09.211Z,69.94
2022-09-14T23:20:46.932Z,69.92
2022-09-14T23:24:24.797Z,69.96
2022-09-14T23:28:04.778Z,70.02
2022-09-14T23:31:43.559Z,69.94
2022-09-14T23:35:21.193Z,69.93
2022-09-14T23:38:59.021Z,69.86
2022-09-14T23:42:36.304Z,69.82
2022-09-14T23:46:14.437Z,69.73
2022-09-14T23:49:51.858Z,69.65
2022-09-14T23:53:29.751Z,69.63
2022-09-14T23:57:07.281Z,69.71
